Rhonda Lamulle — WDC8441 — position and weather

sailwx.info

Track history (hours):
 
Tides and Currents Weather Stations Pressure Air Temp Water Temp Dewpoint Dewpoint Depression Visibility Wind Speed Wind Dir Waves Ship Positions

Rhonda Lamulle

Owner: Florida Marine Transporters, Inc., Mandeville, LA. More information available from US FCC via Universal Licensing System and Coast Guard Vessel Documentation Center.

Last reported at 2014-Oct-20 07:33 UTC. Time now 2014-Oct-20 08:12 UTC.
Position N 30°29' W 086°29'.

Length 27 m; draft 3 m.

Type: Towing. MMSI: 367087160.

Date/timePositionNaut miles runAvg speedWind from/ knotsBaromVisibWave heightAir tempDewpointWater temp
2014-Oct-20 07:33N 30°29' W 086°29'0 0.0
2014-Oct-20 06:33N 30°29' W 086°29'0 0.0
2014-Oct-20 05:33N 30°29' W 086°29'0 0.0
2014-Oct-20 04:33N 30°29' W 086°29'0 0.0
2014-Oct-20 03:34N 30°29' W 086°29'0 0.0
2014-Oct-20 02:33N 30°29' W 086°29'0 0.0
2014-Oct-20 01:34N 30°29' W 086°29'0 0.0
2014-Oct-20 00:33N 30°29' W 086°29'0 0.0
2014-Oct-19 23:33N 30°29' W 086°29'0 0.0
2014-Oct-19 22:33N 30°29' W 086°29'0 0.0
2014-Oct-19 21:33N 30°29' W 086°29'0 0.0
2014-Oct-19 20:34N 30°29' W 086°29'0 0.0
2014-Oct-19 19:33N 30°29' W 086°29'0 0.0
2014-Oct-19 18:33N 30°29' W 086°29'0 0.0
2014-Oct-19 17:34N 30°29' W 086°29'0 0.0
2014-Oct-19 16:33N 30°29' W 086°29'0 0.0
2014-Oct-19 15:33N 30°29' W 086°29'0 0.0
2014-Oct-19 14:33N 30°29' W 086°29'0 0.0
2014-Oct-19 13:33N 30°29' W 086°29'0 0.0
2014-Oct-19 12:34N 30°29' W 086°29'0 0.0
2014-Oct-19 11:33N 30°29' W 086°29'0 0.0
2014-Oct-19 10:33N 30°29' W 086°29'0 0.0
2014-Oct-19 09:33N 30°29' W 086°29'0 0.0
2014-Oct-19 08:15N 30°29' W 086°29'0 0.0
2014-Oct-19 07:33N 30°29' W 086°29'0 0.0
2014-Oct-19 06:34N 30°29' W 086°29'0 0.0
2014-Oct-19 05:33N 30°29' W 086°29'0 0.0
2014-Oct-19 04:33N 30°29' W 086°29'0 0.0
2014-Oct-19 03:34N 30°29' W 086°29'0 0.0
2014-Oct-19 02:34N 30°29' W 086°29'0 0.0
2014-Oct-19 01:34N 30°29' W 086°29'0 0.0
2014-Oct-19 00:34N 30°29' W 086°29'0 0.0
2014-Oct-18 23:34N 30°29' W 086°29'0 0.0
2014-Oct-18 22:33N 30°29' W 086°29'0 0.0
2014-Oct-18 21:34N 30°29' W 086°29'0 0.0
2014-Oct-18 20:34N 30°29' W 086°29'0 0.0
2014-Oct-18 19:33N 30°29' W 086°29'0 0.0
2014-Oct-18 18:34N 30°29' W 086°29'0 0.0
2014-Oct-18 17:34N 30°29' W 086°29'0 0.0
2014-Oct-18 16:33N 30°29' W 086°29'0 0.0
2014-Oct-18 15:33N 30°29' W 086°29'0 0.0
2014-Oct-18 14:33N 30°29' W 086°29'0 0.0
2014-Oct-18 13:34N 30°29' W 086°29'0 0.0
2014-Oct-18 12:34N 30°29' W 086°29'0 0.1
2014-Oct-18 11:34N 30°29' W 086°29'2 2.2
2014-Oct-18 10:33N 30°27' W 086°28'6 5.7
2014-Oct-18 09:34N 30°26' W 086°21'5 0.1
2014-Oct-16 13:34N 30°26' W 086°15'6 5.8
2014-Oct-16 12:33N 30°26' W 086°22'6 5.9
2014-Oct-16 11:34N 30°26' W 086°29'6 5.8
2014-Oct-16 10:34N 30°24' W 086°35'4 4.0
2014-Oct-16 09:33N 30°24' W 086°40'4 4.2
2014-Oct-16 08:33N 30°24' W 086°44'6 5.5
2014-Oct-16 07:33N 30°24' W 086°51'6 5.7
2014-Oct-16 06:33N 30°23' W 086°57'  
Track history (hours):
 
Tides and Currents Weather Stations Pressure Air Temp Water Temp Dewpoint Dewpoint Depression Visibility Wind Speed Wind Dir Waves Ship Positions

Rhonda Lamulle

Owner: Florida Marine Transporters, Inc., Mandeville, LA. More information available from US FCC via Universal Licensing System and Coast Guard Vessel Documentation Center.

Last reported at 2014-Oct-20 07:33 UTC. Time now 2014-Oct-20 08:12 UTC.
Position N 30°29' W 086°29'.

Length 27 m; draft 3 m.

Type: Towing. MMSI: 367087160.

Date/timePositionNaut miles runAvg speedWind from/ knotsBaromVisibWave heightAir tempDewpointWater temp
2014-Oct-20 07:33N 30°29' W 086°29'0 0.0
2014-Oct-20 06:33N 30°29' W 086°29'0 0.0
2014-Oct-20 05:33N 30°29' W 086°29'0 0.0
2014-Oct-20 04:33N 30°29' W 086°29'0 0.0
2014-Oct-20 03:34N 30°29' W 086°29'0 0.0
2014-Oct-20 02:33N 30°29' W 086°29'0 0.0
2014-Oct-20 01:34N 30°29' W 086°29'0 0.0
2014-Oct-20 00:33N 30°29' W 086°29'0 0.0
2014-Oct-19 23:33N 30°29' W 086°29'0 0.0
2014-Oct-19 22:33N 30°29' W 086°29'0 0.0
2014-Oct-19 21:33N 30°29' W 086°29'0 0.0
2014-Oct-19 20:34N 30°29' W 086°29'0 0.0
2014-Oct-19 19:33N 30°29' W 086°29'0 0.0
2014-Oct-19 18:33N 30°29' W 086°29'0 0.0
2014-Oct-19 17:34N 30°29' W 086°29'0 0.0
2014-Oct-19 16:33N 30°29' W 086°29'0 0.0
2014-Oct-19 15:33N 30°29' W 086°29'0 0.0
2014-Oct-19 14:33N 30°29' W 086°29'0 0.0
2014-Oct-19 13:33N 30°29' W 086°29'0 0.0
2014-Oct-19 12:34N 30°29' W 086°29'0 0.0
2014-Oct-19 11:33N 30°29' W 086°29'0 0.0
2014-Oct-19 10:33N 30°29' W 086°29'0 0.0
2014-Oct-19 09:33N 30°29' W 086°29'0 0.0
2014-Oct-19 08:15N 30°29' W 086°29'0 0.0
2014-Oct-19 07:33N 30°29' W 086°29'0 0.0
2014-Oct-19 06:34N 30°29' W 086°29'0 0.0
2014-Oct-19 05:33N 30°29' W 086°29'0 0.0
2014-Oct-19 04:33N 30°29' W 086°29'0 0.0
2014-Oct-19 03:34N 30°29' W 086°29'0 0.0
2014-Oct-19 02:34N 30°29' W 086°29'0 0.0
2014-Oct-19 01:34N 30°29' W 086°29'0 0.0
2014-Oct-19 00:34N 30°29' W 086°29'0 0.0
2014-Oct-18 23:34N 30°29' W 086°29'0 0.0
2014-Oct-18 22:33N 30°29' W 086°29'0 0.0
2014-Oct-18 21:34N 30°29' W 086°29'0 0.0
2014-Oct-18 20:34N 30°29' W 086°29'0 0.0
2014-Oct-18 19:33N 30°29' W 086°29'0 0.0
2014-Oct-18 18:34N 30°29' W 086°29'0 0.0
2014-Oct-18 17:34N 30°29' W 086°29'0 0.0
2014-Oct-18 16:33N 30°29' W 086°29'0 0.0
2014-Oct-18 15:33N 30°29' W 086°29'0 0.0
2014-Oct-18 14:33N 30°29' W 086°29'0 0.0
2014-Oct-18 13:34N 30°29' W 086°29'0 0.0
2014-Oct-18 12:34N 30°29' W 086°29'0 0.1
2014-Oct-18 11:34N 30°29' W 086°29'2 2.2
2014-Oct-18 10:33N 30°27' W 086°28'6 5.7
2014-Oct-18 09:34N 30°26' W 086°21'5 0.1
2014-Oct-16 13:34N 30°26' W 086°15'6 5.8
2014-Oct-16 12:33N 30°26' W 086°22'6 5.9
2014-Oct-16 11:34N 30°26' W 086°29'6 5.8
2014-Oct-16 10:34N 30°24' W 086°35'4 4.0
2014-Oct-16 09:33N 30°24' W 086°40'4 4.2
2014-Oct-16 08:33N 30°24' W 086°44'6 5.5
2014-Oct-16 07:33N 30°24' W 086°51'6 5.7
2014-Oct-16 06:33N 30°23' W 086°57'  

Dump ship's entire track history